createdAt,value
2023-03-20T00:02:18.663Z,10.59
2023-03-20T00:04:45.607Z,10.61
2023-03-20T00:07:13.006Z,10.67
2023-03-20T00:09:39.650Z,10.65
2023-03-20T00:12:06.603Z,10.56
2023-03-20T00:14:34.634Z,10.61
2023-03-20T00:17:02.172Z,10.56
2023-03-20T00:19:29.634Z,10.62
2023-03-20T00:21:57.196Z,10.57
2023-03-20T00:24:25.612Z,10.61
2023-03-20T00:26:53.234Z,10.63
2023-03-20T00:29:32.011Z,10.64
2023-03-20T00:31:59.378Z,10.64
2023-03-20T00:34:29.636Z,10.63
2023-03-20T00:36:57.040Z,10.65
2023-03-20T00:39:24.462Z,10.55
2023-03-20T00:42:16.246Z,10.42
2023-03-20T00:44:53.266Z,10.31
2023-03-20T00:47:22.688Z,10.37
2023-03-20T00:49:51.318Z,10.37
2023-03-20T00:52:19.486Z,10.37
2023-03-20T00:54:46.446Z,10.36
2023-03-20T00:57:19.541Z,10.40
2023-03-20T00:59:56.984Z,10.41
2023-03-20T01:02:29.138Z,10.31
2023-03-20T01:04:56.108Z,10.24
2023-03-20T01:07:22.711Z,10.25
2023-03-20T01:09:49.676Z,10.28
2023-03-20T01:12:16.511Z,10.25
2023-03-20T01:14:44.121Z,10.27
2023-03-20T01:17:21.765Z,10.25
2023-03-20T01:19:48.573Z,10.28
2023-03-20T01:22:16.075Z,10.30
2023-03-20T01:24:42.639Z,10.31
2023-03-20T01:27:15.994Z,10.29
2023-03-20T01:29:42.781Z,10.30
2023-03-20T01:32:13.139Z,10.30
2023-03-20T01:34:39.820Z,10.33
2023-03-20T01:37:13.138Z,10.35
2023-03-20T01:39:39.858Z,10.36
2023-03-20T01:42:08.720Z,10.38
2023-03-20T01:44:38.383Z,10.34
2023-03-20T01:47:15.381Z,10.32
2023-03-20T01:50:19.612Z,10.36
2023-03-20T01:52:48.128Z,10.27
2023-03-20T01:55:14.793Z,10.27
2023-03-20T01:57:42.102Z,10.29
2023-03-20T02:00:15.708Z,10.27
2023-03-20T02:02:45.360Z,10.26
2023-03-20T02:05:14.604Z,10.26
2023-03-20T02:07:41.775Z,10.25
2023-03-20T02:10:12.316Z,10.20
2023-03-20T02:12:39.850Z,10.23
2023-03-20T02:15:07.742Z,10.10
2023-03-20T02:17:34.691Z,10.14
2023-03-20T02:20:17.864Z,10.21
2023-03-20T02:23:05.687Z,10.23
2023-03-20T02:26:19.142Z,10.24
2023-03-20T02:28:54.677Z,10.22
2023-03-20T02:31:59.968Z,10.22
2023-03-20T02:34:55.419Z,10.18
2023-03-20T02:37:52.629Z,10.21
2023-03-20T02:40:49.885Z,10.21
2023-03-20T02:43:43.788Z,10.17
2023-03-20T02:46:32.341Z,10.18
2023-03-20T02:49:34.485Z,10.11
2023-03-20T02:52:34.545Z,10.11
2023-03-20T02:55:27.519Z,10.13
2023-03-20T02:58:20.234Z,10.12
2023-03-20T03:01:00.110Z,10.13
2023-03-20T03:03:46.360Z,10.14
2023-03-20T03:06:39.327Z,10.17
2023-03-20T03:09:14.892Z,10.14
2023-03-20T03:11:54.792Z,10.11
2023-03-20T03:14:37.344Z,10.15
2023-03-20T03:17:12.311Z,10.12
2023-03-20T03:19:47.793Z,10.13
2023-03-20T03:22:24.804Z,10.14
2023-03-20T03:24:54.020Z,10.09
2023-03-20T03:27:44.076Z,10.09
2023-03-20T03:30:13.716Z,10.10
2023-03-20T03:32:47.969Z,10.11
2023-03-20T03:35:19.486Z,10.10
2023-03-20T03:37:52.235Z,10.05
2023-03-20T03:40:30.588Z,10.05
2023-03-20T03:43:20.579Z,10.00
2023-03-20T03:45:56.070Z,10.01
2023-03-20T03:48:31.190Z,9.97
2023-03-20T03:51:05.165Z,9.92
2023-03-20T03:53:37.079Z,9.91
2023-03-20T03:56:11.307Z,9.90
2023-03-20T03:58:42.126Z,9.92
2023-03-20T04:01:12.594Z,9.84
2023-03-20T04:03:46.884Z,9.86
2023-03-20T04:06:16.009Z,9.86
2023-03-20T04:08:43.571Z,9.86
2023-03-20T04:11:22.359Z,9.85
2023-03-20T04:13:51.312Z,9.87
2023-03-20T04:16:21.816Z,9.86
2023-03-20T04:18:48.522Z,9.86
2023-03-20T04:21:17.959Z,9.86
2023-03-20T04:23:44.714Z,9.85
2023-03-20T04:26:11.787Z,9.84
2023-03-20T04:28:38.654Z,9.75
2023-03-20T04:31:05.626Z,9.77
2023-03-20T04:33:32.769Z,9.74
2023-03-20T04:35:59.576Z,9.71
2023-03-20T04:38:27.136Z,9.73
2023-03-20T04:40:53.777Z,9.64
2023-03-20T04:43:20.524Z,9.62
2023-03-20T04:45:47.621Z,9.63
2023-03-20T04:48:14.594Z,9.61
2023-03-20T04:50:41.478Z,9.60
2023-03-20T04:53:08.286Z,9.63
2023-03-20T04:55:35.516Z,9.62
2023-03-20T04:58:05.116Z,9.62
2023-03-20T05:00:31.786Z,9.58
2023-03-20T05:02:58.868Z,9.58
2023-03-20T05:05:25.884Z,9.56
2023-03-20T05:07:52.646Z,9.53
2023-03-20T05:10:19.891Z,9.50
2023-03-20T05:12:47.656Z,9.49
2023-03-20T05:15:15.355Z,9.46
2023-03-20T05:17:42.321Z,9.42
2023-03-20T05:20:09.468Z,9.45
2023-03-20T05:22:36.192Z,9.45
2023-03-20T05:25:03.608Z,9.40
2023-03-20T05:27:30.668Z,9.44
2023-03-20T05:29:57.425Z,9.39
2023-03-20T05:32:24.045Z,9.35
2023-03-20T05:34:50.926Z,9.41
2023-03-20T05:37:17.832Z,9.40
2023-03-20T05:39:44.617Z,9.43
2023-03-20T05:42:11.225Z,9.45
2023-03-20T05:44:38.060Z,9.40
2023-03-20T05:47:05.149Z,9.44
2023-03-20T05:49:32.485Z,9.37
2023-03-20T05:51:59.429Z,9.30
2023-03-20T05:54:26.128Z,9.35
2023-03-20T05:56:52.892Z,9.36
2023-03-20T05:59:19.702Z,9.37
2023-03-20T06:01:47.022Z,9.39
2023-03-20T06:04:13.884Z,9.42
2023-03-20T06:06:42.192Z,9.47
2023-03-20T06:09:11.787Z,9.42
2023-03-20T06:11:38.515Z,9.36
2023-03-20T06:14:07.822Z,9.19
2023-03-20T06:16:34.905Z,9.17
2023-03-20T06:19:02.019Z,9.18
2023-03-20T06:21:29.406Z,9.16
2023-03-20T06:23:58.400Z,9.12
2023-03-20T06:26:25.313Z,9.20
2023-03-20T06:28:52.074Z,9.13
2023-03-20T06:31:24.274Z,9.01
2023-03-20T06:33:51.023Z,8.95
2023-03-20T06:36:17.793Z,8.91
2023-03-20T06:38:46.709Z,9.02
2023-03-20T06:41:33.852Z,9.05
2023-03-20T06:44:03.754Z,9.11
2023-03-20T06:46:30.494Z,9.16
2023-03-20T06:48:57.223Z,9.17
2023-03-20T06:51:24.033Z,9.16
2023-03-20T06:53:51.270Z,9.22
2023-03-20T06:56:19.606Z,9.26
2023-03-20T06:58:46.483Z,9.28
2023-03-20T07:01:19.264Z,9.34
2023-03-20T07:03:46.739Z,9.38
2023-03-20T07:06:14.067Z,9.34
2023-03-20T07:08:41.233Z,9.46
2023-03-20T07:11:11.454Z,9.48
2023-03-20T07:13:40.935Z,9.48
2023-03-20T07:16:08.563Z,9.47
2023-03-20T07:18:35.292Z,9.47
2023-03-20T07:21:04.303Z,9.44
2023-03-20T07:23:31.841Z,9.40
2023-03-20T07:25:58.978Z,9.39
2023-03-20T07:28:26.085Z,9.46
2023-03-20T07:30:52.847Z,9.46
2023-03-20T07:33:19.620Z,9.47
2023-03-20T07:35:46.345Z,9.42
2023-03-20T07:38:15.423Z,9.56
2023-03-20T07:40:42.634Z,9.55
2023-03-20T07:43:09.224Z,9.53
2023-03-20T07:45:36.073Z,9.61
2023-03-20T07:48:02.877Z,9.61
2023-03-20T07:50:30.075Z,9.66
2023-03-20T07:52:57.174Z,9.72
2023-03-20T07:55:23.956Z,9.67
2023-03-20T07:57:51.147Z,9.82
2023-03-20T08:00:19.136Z,9.71
2023-03-20T08:02:46.274Z,9.82
2023-03-20T08:05:12.910Z,9.82
2023-03-20T08:07:41.955Z,9.88
2023-03-20T08:10:11.542Z,9.97
2023-03-20T08:12:38.112Z,9.90
2023-03-20T08:15:05.146Z,9.98
2023-03-20T08:17:34.490Z,10.02
2023-03-20T08:20:01.563Z,10.05
2023-03-20T08:22:31.074Z,10.09
2023-03-20T08:24:57.648Z,10.09
2023-03-20T08:27:25.120Z,10.09
2023-03-20T08:29:51.951Z,10.08
2023-03-20T08:32:18.770Z,10.05
2023-03-20T08:34:48.382Z,10.05
2023-03-20T08:37:17.323Z,10.02
2023-03-20T08:39:44.390Z,10.01
2023-03-20T08:42:11.503Z,9.97
2023-03-20T08:44:38.035Z,9.91
2023-03-20T08:47:05.611Z,9.96
2023-03-20T08:49:32.175Z,9.93
2023-03-20T08:51:59.888Z,9.90
2023-03-20T08:54:27.594Z,9.89
2023-03-20T08:56:54.122Z,9.86
2023-03-20T08:59:21.233Z,9.87
2023-03-20T09:01:50.026Z,9.88
2023-03-20T09:04:17.885Z,10.00
2023-03-20T09:06:44.494Z,10.03
2023-03-20T09:09:11.453Z,10.03
2023-03-20T09:11:38.079Z,10.06
2023-03-20T09:14:04.616Z,10.07
2023-03-20T09:16:31.293Z,10.10
2023-03-20T09:18:57.904Z,10.11
2023-03-20T09:21:24.554Z,10.08
2023-03-20T09:23:51.101Z,10.10
2023-03-20T09:26:17.890Z,10.13
2023-03-20T09:28:44.420Z,10.14
2023-03-20T09:31:12.116Z,10.10
2023-03-20T09:33:38.748Z,9.97
2023-03-20T09:36:05.731Z,9.99
2023-03-20T09:38:32.274Z,10.11
2023-03-20T09:41:03.845Z,10.21
2023-03-20T09:43:42.393Z,10.21
2023-03-20T09:46:16.156Z,10.23
2023-03-20T09:49:13.588Z,10.26
2023-03-20T09:51:55.885Z,10.26
2023-03-20T09:54:37.723Z,10.18
2023-03-20T09:57:28.647Z,10.22
2023-03-20T10:00:05.660Z,10.27
2023-03-20T10:02:45.565Z,10.24
2023-03-20T10:05:22.434Z,10.29
2023-03-20T10:07:49.634Z,10.26
2023-03-20T10:10:20.412Z,10.32
2023-03-20T10:12:54.074Z,10.37
2023-03-20T10:15:35.040Z,10.36
2023-03-20T10:18:24.508Z,10.37
2023-03-20T10:21:07.099Z,10.32
2023-03-20T10:23:38.160Z,10.43
2023-03-20T10:26:17.176Z,10.39
2023-03-20T10:28:55.974Z,10.38
2023-03-20T10:31:33.765Z,10.49
2023-03-20T10:34:28.259Z,10.65
2023-03-20T10:37:22.778Z,10.70
2023-03-20T10:40:01.446Z,10.65
2023-03-20T10:42:33.749Z,10.58
2023-03-20T10:45:28.603Z,10.48
2023-03-20T10:47:59.523Z,10.46
2023-03-20T10:50:36.029Z,10.50
2023-03-20T10:53:04.169Z,10.58
2023-03-20T10:55:44.323Z,10.59
2023-03-20T10:58:26.679Z,10.54
2023-03-20T11:00:56.430Z,10.74
2023-03-20T11:03:26.270Z,10.67
2023-03-20T11:06:10.522Z,10.60
2023-03-20T11:08:46.807Z,10.61
2023-03-20T11:11:13.530Z,10.55
2023-03-20T11:13:44.116Z,10.64
2023-03-20T11:16:22.656Z,10.54
2023-03-20T11:18:50.724Z,10.55
2023-03-20T11:21:21.411Z,10.58
2023-03-20T11:23:48.651Z,10.71
2023-03-20T11:26:28.058Z,10.69
2023-03-20T11:29:01.232Z,10.76
2023-03-20T11:31:38.285Z,10.76
2023-03-20T11:34:04.836Z,10.84
2023-03-20T11:36:34.693Z,10.81
2023-03-20T11:39:16.348Z,10.79
2023-03-20T11:41:54.329Z,10.72
2023-03-20T11:44:23.692Z,10.59
2023-03-20T11:47:05.754Z,10.49
2023-03-20T11:49:45.658Z,10.47
2023-03-20T11:52:14.895Z,10.35
2023-03-20T11:54:49.448Z,10.33
2023-03-20T11:57:33.400Z,10.47
2023-03-20T12:00:06.556Z,10.51
2023-03-20T12:02:35.788Z,10.51
2023-03-20T12:05:17.377Z,10.52
2023-03-20T12:07:46.557Z,10.48
2023-03-20T12:10:15.199Z,10.47
2023-03-20T12:12:57.218Z,10.56
2023-03-20T12:15:40.299Z,10.49
2023-03-20T12:18:31.610Z,10.37
2023-03-20T12:21:03.790Z,10.47
2023-03-20T12:23:43.987Z,10.52
2023-03-20T12:26:13.854Z,10.59
2023-03-20T12:28:46.413Z,10.73
2023-03-20T12:31:46.786Z,10.82
2023-03-20T12:34:21.712Z,10.66
2023-03-20T12:36:50.289Z,10.65
2023-03-20T12:39:24.175Z,10.62
2023-03-20T12:42:34.768Z,10.53
2023-03-20T12:45:20.094Z,10.61
2023-03-20T12:48:18.347Z,10.67
2023-03-20T12:50:52.421Z,10.73
2023-03-20T12:53:53.624Z,10.76
2023-03-20T12:56:40.728Z,10.68
2023-03-20T12:59:19.264Z,10.43
2023-03-20T13:01:55.729Z,10.24
2023-03-20T13:04:40.930Z,10.21
2023-03-20T13:07:20.366Z,10.23
2023-03-20T13:10:27.590Z,10.21
2023-03-20T13:13:08.218Z,10.25
2023-03-20T13:15:56.654Z,10.33
2023-03-20T13:18:25.000Z,10.30
2023-03-20T13:20:56.440Z,10.37
2023-03-20T13:23:41.966Z,10.32
2023-03-20T13:26:17.780Z,10.36
2023-03-20T13:29:19.583Z,10.40
2023-03-20T13:31:54.312Z,10.50
2023-03-20T13:35:02.431Z,10.47
2023-03-20T13:37:39.777Z,10.58
2023-03-20T13:40:13.397Z,10.55
2023-03-20T13:42:47.766Z,10.63
2023-03-20T13:45:28.431Z,10.67
2023-03-20T13:47:58.807Z,10.67
2023-03-20T13:50:45.901Z,10.66
2023-03-20T13:53:30.700Z,10.69
2023-03-20T13:56:26.572Z,10.58
2023-03-20T13:59:08.763Z,10.59
2023-03-20T14:02:17.924Z,10.62
2023-03-20T14:04:45.900Z,10.76
2023-03-20T14:07:55.828Z,10.60
2023-03-20T14:10:22.390Z,10.37
2023-03-20T14:12:51.140Z,10.49
2023-03-20T14:15:19.301Z,10.43
2023-03-20T14:17:49.522Z,10.43
2023-03-20T14:20:41.110Z,10.42
2023-03-20T14:23:20.779Z,10.37
2023-03-20T14:25:48.562Z,10.42
2023-03-20T14:28:15.129Z,10.54
2023-03-20T14:30:44.275Z,10.68
2023-03-20T14:33:17.358Z,10.70
2023-03-20T14:35:45.160Z,10.77
2023-03-20T14:38:21.034Z,10.90
2023-03-20T14:41:13.556Z,10.94
2023-03-20T14:43:58.681Z,10.83
2023-03-20T14:46:48.198Z,10.79
2023-03-20T14:49:36.831Z,10.71
2023-03-20T14:52:28.122Z,10.79
2023-03-20T14:54:55.813Z,10.81
2023-03-20T14:57:48.719Z,10.64
2023-03-20T15:00:25.473Z,10.58
2023-03-20T15:03:05.916Z,10.72
2023-03-20T15:05:34.937Z,10.72
2023-03-20T15:08:12.773Z,10.65
2023-03-20T15:10:50.620Z,10.52
2023-03-20T15:13:18.063Z,10.56
2023-03-20T15:16:05.304Z,10.53
2023-03-20T15:18:37.432Z,10.52
2023-03-20T15:21:04.324Z,10.45
2023-03-20T15:23:31.006Z,10.43
2023-03-20T15:26:00.564Z,10.50
2023-03-20T15:28:27.700Z,10.46
2023-03-20T15:30:59.187Z,10.45
2023-03-20T15:33:35.959Z,10.50
2023-03-20T15:36:14.911Z,10.55
2023-03-20T15:38:41.770Z,10.56
2023-03-20T15:41:08.696Z,10.26
2023-03-20T15:43:35.888Z,10.32
2023-03-20T15:46:17.330Z,10.21
2023-03-20T15:48:48.901Z,10.17
2023-03-20T15:51:16.412Z,10.14
2023-03-20T15:53:46.249Z,10.13
2023-03-20T15:56:19.874Z,10.18
2023-03-20T15:58:50.097Z,10.13
2023-03-20T16:01:23.748Z,10.17
2023-03-20T16:03:51.396Z,10.17
2023-03-20T16:06:24.476Z,10.10
2023-03-20T16:09:05.114Z,10.13
2023-03-20T16:11:43.916Z,10.11
2023-03-20T16:14:16.336Z,10.11
2023-03-20T16:16:43.995Z,10.05
2023-03-20T16:19:12.846Z,9.98
2023-03-20T16:21:43.819Z,9.96
2023-03-20T16:24:18.039Z,9.99
2023-03-20T16:26:48.201Z,10.03
2023-03-20T16:29:15.672Z,10.04
2023-03-20T16:31:49.745Z,9.97
2023-03-20T16:34:42.710Z,9.91
2023-03-20T16:37:24.250Z,9.89
2023-03-20T16:40:04.076Z,9.95
2023-03-20T16:42:31.349Z,9.90
2023-03-20T16:44:58.646Z,9.91
2023-03-20T16:47:34.889Z,9.97
2023-03-20T16:50:35.236Z,9.93
2023-03-20T16:53:02.027Z,9.80
2023-03-20T16:55:31.708Z,9.83
2023-03-20T16:58:03.433Z,9.94
2023-03-20T17:00:33.385Z,9.89
2023-03-20T17:03:16.564Z,9.95
2023-03-20T17:05:57.926Z,9.97
2023-03-20T17:08:48.653Z,10.01
2023-03-20T17:11:26.654Z,10.03
2023-03-20T17:13:53.676Z,10.05
2023-03-20T17:16:21.628Z,10.00
2023-03-20T17:19:00.087Z,9.91
2023-03-20T17:21:26.736Z,9.95
2023-03-20T17:23:53.468Z,10.00
2023-03-20T17:26:20.021Z,10.04
2023-03-20T17:28:46.633Z,10.09
2023-03-20T17:31:16.903Z,10.03
2023-03-20T17:33:44.508Z,10.02
2023-03-20T17:36:26.679Z,10.00
2023-03-20T17:38:54.640Z,10.00
2023-03-20T17:41:22.957Z,10.02
2023-03-20T17:43:51.583Z,10.09
2023-03-20T17:46:19.266Z,10.10
2023-03-20T17:48:48.034Z,10.10
2023-03-20T17:51:14.976Z,10.05
2023-03-20T17:53:41.596Z,10.11
2023-03-20T17:56:17.012Z,10.12
2023-03-20T17:58:46.349Z,10.11
2023-03-20T18:01:13.571Z,10.09
2023-03-20T18:03:40.760Z,10.12
2023-03-20T18:06:08.107Z,10.15
2023-03-20T18:08:34.718Z,10.17
2023-03-20T18:11:01.266Z,10.18
2023-03-20T18:13:29.236Z,10.23
2023-03-20T18:15:58.606Z,10.21
2023-03-20T18:18:25.824Z,10.22
2023-03-20T18:20:55.464Z,10.21
2023-03-20T18:23:23.114Z,10.24
2023-03-20T18:25:49.684Z,10.22
2023-03-20T18:28:24.508Z,10.22
2023-03-20T18:30:51.720Z,10.24
2023-03-20T18:33:18.404Z,10.26
2023-03-20T18:35:45.197Z,10.25
2023-03-20T18:38:13.776Z,10.26
2023-03-20T18:40:40.570Z,10.21
2023-03-20T18:43:07.124Z,10.23
2023-03-20T18:45:33.728Z,10.23
2023-03-20T18:48:03.751Z,10.23
2023-03-20T18:50:37.619Z,10.22
2023-03-20T18:53:05.958Z,10.21
2023-03-20T18:55:32.712Z,10.19
2023-03-20T18:58:03.590Z,10.16
2023-03-20T19:00:38.205Z,10.19
2023-03-20T19:03:04.925Z,10.18
2023-03-20T19:05:31.525Z,10.12
2023-03-20T19:07:59.803Z,10.13
2023-03-20T19:10:34.474Z,10.10
2023-03-20T19:13:02.604Z,10.09
2023-03-20T19:15:31.080Z,10.12
2023-03-20T19:17:57.595Z,10.11
2023-03-20T19:20:30.580Z,10.11
2023-03-20T19:22:57.265Z,10.13
2023-03-20T19:25:23.721Z,10.17
2023-03-20T19:27:50.186Z,10.08
2023-03-20T19:30:38.251Z,10.08
2023-03-20T19:33:06.861Z,10.11
2023-03-20T19:38:22.049Z,10.12
2023-03-20T19:40:53.064Z,10.12
2023-03-20T19:43:22.922Z,10.12
2023-03-20T19:45:55.965Z,10.16
2023-03-20T19:48:27.061Z,10.14
2023-03-20T19:50:55.764Z,10.10
2023-03-20T19:53:25.011Z,10.04
2023-03-20T19:55:51.548Z,10.06
2023-03-20T19:58:18.086Z,10.09
2023-03-20T20:01:01.014Z,10.13
2023-03-20T20:03:28.293Z,10.13
2023-03-20T20:05:55.658Z,10.11
2023-03-20T20:08:38.380Z,10.15
2023-03-20T20:11:11.912Z,10.10
2023-03-20T20:13:53.437Z,10.14
2023-03-20T20:16:25.886Z,10.11
2023-03-20T20:18:52.449Z,10.09
2023-03-20T20:22:10.025Z,10.09
2023-03-20T20:24:05.948Z,10.09
2023-03-20T20:26:39.019Z,10.09
2023-03-20T20:29:07.595Z,10.09
2023-03-20T20:31:34.215Z,10.08
2023-03-20T20:34:39.977Z,10.11
2023-03-20T20:37:51.142Z,10.14
2023-03-20T20:39:33.910Z,10.17
2023-03-20T20:42:01.142Z,10.13
2023-03-20T20:44:27.822Z,10.13
2023-03-20T20:46:54.302Z,10.12
2023-03-20T20:49:21.123Z,10.16
2023-03-20T20:51:48.453Z,10.13
2023-03-20T20:54:15.728Z,10.11
2023-03-20T20:56:42.262Z,10.12
2023-03-20T20:59:08.865Z,10.14
2023-03-20T21:01:36.105Z,10.15
2023-03-20T21:04:02.906Z,10.11
2023-03-20T21:06:54.208Z,10.12
2023-03-20T21:09:16.424Z,10.17
2023-03-20T21:11:42.927Z,10.15
2023-03-20T21:14:09.516Z,10.17
2023-03-20T21:16:36.160Z,10.19
2023-03-20T21:19:02.732Z,10.22
2023-03-20T21:21:30.395Z,10.27
2023-03-20T21:23:57.109Z,10.25
2023-03-20T21:26:23.770Z,10.22
2023-03-20T21:28:50.510Z,10.26
2023-03-20T21:31:28.590Z,10.27
2023-03-20T21:33:58.452Z,10.26
2023-03-20T21:36:25.941Z,10.27
2023-03-20T21:39:09.429Z,10.22
2023-03-20T21:41:38.301Z,10.17
2023-03-20T21:44:06.473Z,10.18
2023-03-20T21:47:15.365Z,10.18
2023-03-20T21:55:45.451Z,10.19
2023-03-20T22:03:35.221Z,10.32
2023-03-20T22:15:16.118Z,10.34
2023-03-20T22:20:44.768Z,10.31
2023-03-20T22:26:18.124Z,10.39
2023-03-20T22:42:49.666Z,10.32
2023-03-20T22:45:09.118Z,10.31
2023-03-20T22:47:36.531Z,10.36
2023-03-20T22:50:03.384Z,10.31
2023-03-20T22:52:45.481Z,10.34
2023-03-20T22:55:14.695Z,10.34
2023-03-20T22:57:50.170Z,10.33
2023-03-20T23:00:26.448Z,10.36
2023-03-20T23:02:57.229Z,10.36
2023-03-20T23:05:27.086Z,10.37
2023-03-20T23:07:53.590Z,10.36
2023-03-20T23:10:23.679Z,10.37
2023-03-20T23:12:50.344Z,10.39
2023-03-20T23:15:17.091Z,10.43
2023-03-20T23:17:47.380Z,10.43
2023-03-20T23:20:18.764Z,10.48
2023-03-20T23:22:46.806Z,10.49
2023-03-20T23:25:21.045Z,10.53
2023-03-20T23:27:59.002Z,10.48
2023-03-20T23:30:30.919Z,10.42
2023-03-20T23:33:00.897Z,10.45
2023-03-20T23:35:27.452Z,10.46
2023-03-20T23:37:53.915Z,10.43
2023-03-20T23:40:20.640Z,10.42
2023-03-20T23:42:47.278Z,10.45
2023-03-20T23:45:20.613Z,10.45
2023-03-20T23:47:48.355Z,10.46
2023-03-20T23:50:26.526Z,10.42
2023-03-20T23:53:03.614Z,10.43
2023-03-20T23:55:36.240Z,10.42
2023-03-20T23:58:02.742Z,10.38
